Weather observations for the past three days for
Door County Cherryland Airport
Metric (Imperial)
Date Time (cdt) Wind (kph) Vis. (km) Weather Sky Cond. Temperature (ºC) Relative Humidity Wind Chill (°C) Heat Index (°C) Pressure Precipitation (cm)
Air Dwpt 6 hour altimeter (cm) sea level (mb) 1 hr 3 hr 6 hr
Max. Min.
04 20:57 NW 22 16.09 Fair CLR 15.6 0.6 36% 74.75 996.2
04 19:57 NW 19 16.09 Fair CLR 16.7 1.7 37% 74.68 995.3
04 18:57 W 26 G 37 16.09 A Few Clouds FEW120 18.3 1.7 23.9 17.8 33% 74.6 994.2
04 17:57 NW 24 G 33 16.09 Mostly Cloudy BKN110 17.8 1.7 34% 74.57 994.1
04 16:57 W 30 G 39 16.09 Partly Cloudy SCT110 21.1 1.7 28% 74.52 993.1
04 15:57 W 26 G 43 16.09 Fair CLR 22.2 6.1 35% 74.5 992.8
04 14:57 W 31 G 44 16.09 A Few Clouds FEW085 23.3 6.1 33% 74.5 992.8
04 13:57 W 43 G 56 16.09 A Few Clouds and Windy FEW120 23.3 6.1 33% 74.5 992.9
04 12:57 W 39 G 56 16.09 A Few Clouds and Breezy FEW110 23.9 5.6 23.9 11.1 31% 25 74.47 992.5
04 11:57 SW 33 G 61 16.09 Fair and Breezy CLR 22.8 4.4 30% 74.47 992.7
04 10:57 SW 39 G 65 16.09 Fair and Breezy CLR 22.2 3.3 29% 74.52 993.4
04 09:57 SW 33 G 48 16.09 Fair and Breezy CLR 20 3.9 35% 74.6 994.4
04 08:57 SW 31 G 43 16.09 Fair CLR 17.8 2.8 37% 74.7 995.6
04 07:57 SW 24 16.09 Fair CLR 15 2.2 42% 74.8 997.1
04 06:57 SW 20 16.09 Fair CLR 11.1 1.7 11.1 7.8 53% 74.83 997.6
04 05:57 SW 15 16.09 Fair CLR 8.3 2.8 69% 6 74.88 998.2
04 04:57 S 13 16.09 Fair CLR 8.9 3.3 68% 7 74.96 999.2
04 03:57 S 13 16.09 Fair CLR 7.8 3.9 77% 6 75.01 999.9
04 02:57 S 11 16.09 Fair CLR 9.4 3.9 69% 8 75.06 1000.6
04 01:57 SE 11 16.09 Fair CLR 9.4 3.9 69% 8 75.11 1001.3
04 00:57 E 7 16.09 Fair CLR 10 3.9 12.8 7.2 66% 9 75.16 1001.9
03 23:57 Calm 16.09 Fair CLR 10.6 4.4 66% 75.21 1002.4
03 22:57 N 11 16.09 Fair CLR 8.3 4.4 77% 7 75.21 1002.6
03 21:57 N 13 16.09 Partly Cloudy FEW090 SCT100 7.8 5 83% 6 75.21 1002.8
03 20:57 Calm 16.09 Fair CLR 8.9 5.6 80% 75.13 1001.8
03 19:57 SE 9 16.09 Fair CLR 9.4 5.6 77% 8 75.11 1001.4
03 18:57 SE 13 16.09 Fair CLR 11.7 6.7 20 11.7 72% 75.08 1001.2
03 17:57 SW 15 G 39 16.09 Thunderstorm in Vicinity BKN100 18.9 5 40% 75.08 1000.7
03 16:57 SW 26 G 48 16.09 Fair CLR 20 5 38% 75.06 1000.4
03 15:57 SW 35 G 44 16.09 Fair and Breezy CLR 19.4 5 39% 75.11 1001.3
03 14:57 SW 31 G 46 16.09 A Few Clouds FEW055 19.4 6.1 42% 75.18 1002.1
03 13:57 SW 33 G 44 16.09 Fair and Breezy CLR 18.3 5 42% 75.26 1003.4
03 12:57 W 39 G 52 16.09 A Few Clouds and Breezy FEW120 17.2 3.9 17.8 8.9 41% 75.34 1004.5
03 11:57 W 37 G 50 16.09 Partly Cloudy and Breezy SCT120 16.7 4.4 44% 75.39 1005.3
03 10:57 W 30 G 39 16.09 Overcast SCT070 BKN090 OVC110 14.4 3.3 48% 75.44 1005.9
03 09:57 SW 30 G 44 16.09 Partly Cloudy SCT075 13.9 2.2 45% 75.46 1006.4
03 08:57 SW 22 16.09 Overcast OVC070 11.7 2.8 55% 75.54 1007.2
03 07:57 SW 20 16.09 Overcast OVC080 9.4 2.2 61% 7 75.59 1007.9
03 06:57 SW 13 16.09 Light Rain BKN055 OVC070 8.9 3.9 11.1 4.4 71% 7 75.62 1008.2
03 05:57 W 19 16.09 Overcast OVC060 10.6 1.1 52% 75.59 1007.8
03 04:57 SW 19 16.09 Overcast BKN075 OVC100 9.4 0.6 55% 7 75.62 1008.1
03 03:57 SW 15 16.09 Overcast BKN075 OVC100 8.3 0.6 59% 6 75.64 1008.6
03 02:57 SW 15 16.09 Overcast OVC075 7.8 0.6 61% 6 75.69 1009.2
03 01:57 SW 15 16.09 Fair CLR 5 -0.6 67% 2 75.74 1009.8
03 00:57 SW 15 16.09 Fair CLR 4.4 -0.6 6.7 4.4 70% 1 75.77 1010.5
02 23:57 SW 20 16.09 Fair CLR 5 -1.1 65% 1 75.82 1010.9
02 22:57 S 26 16.09 Fair CLR 5.6 -1.7 60% 2 75.84 1011.6
02 21:57 S 24 16.09 Fair CLR 5.6 -2.2 58% 2 75.9 1012.3
02 20:57 S 26 G 39 16.09 Fair CLR 5.6 -3.3 53% 2 75.92 1012.8
02 19:57 S 26 16.09 Fair CLR 5.6 -1.7 60% 2 75.95 1013.0
02 18:57 S 28 16.09 Fair CLR 6.7 -3.3 11.7 6.7 49% 3 75.97 1013.4
02 17:57 S 30 G 41 16.09 Fair CLR 7.8 -3.9 44% 4 76.02 1013.9
02 16:57 S 26 G 37 16.09 Fair CLR 8.3 -2.2 48% 5 76.05 1014.5
02 15:57 S 28 16.09 Fair CLR 9.4 -2.2 44% 6 76.1 1014.8
02 14:57 S 20 16.09 Partly Cloudy SCT070 9.4 -1.1 48% 7 76.17 1016.0
02 13:57 SW 17 16.09 Fair CLR 11.7 -4.4 32% 76.23 1016.7
02 12:57 NW 13 16.09 Fair CLR 10 -5.6 10.6 1.7 33% 8 76.28 1017.4
02 11:57 NW 13 16.09 Fair CLR 8.9 -5.6 36% 7 76.33 1018.2
02 10:57 W 7 16.09 Fair CLR 7.8 -6.1 37% 7 76.38 1018.8
02 09:57 Vrbl 7 16.09 Fair CLR 6.1 -7.2 38% 5 76.4 1019.3
02 08:57 W 7 16.09 Fair CLR 5.6 -4.4 49% 4 76.43 1019.6
02 07:57 SW 6 16.09 Fair CLR 3.9 -2.2 65% 76.45 1019.6
02 06:57 S 6 16.09 Fair CLR 1.7 -0.6 1.7 -3.3 85% 76.45 1019.6
02 05:57 Calm 16.09 Fair CLR -2.8 -3.3 96% 76.43 1019.8
02 04:57 Calm 16.09 Fair CLR -2.8 -3.3 96% 76.43 1019.6
02 03:57 Calm 16.09 Fair CLR -1.7 -2.8 92% 76.43 1019.5
02 02:57 Calm 16.09 Fair CLR -0.6 -2.8 85% 76.4 1019.2
02 01:57 Calm 16.09 Fair CLR -0.6 -2.2 89% 76.4 1019.3
02 00:57 Calm 16.09 Fair CLR 0.6 -2.2 3.9 0 82% 76.43 1019.4
01 23:57 SW 6 16.09 Fair CLR 0.6 -2.8 78% 76.4 1019.2
01 22:57 Calm 16.09 Fair CLR 0.6 -1.7 85% 76.4 1019.1
01 21:57 SW 6 16.09 A Few Clouds FEW080 2.2 -1.7 76% 76.43 1019.4
Date Time (cdt) Wind (kph) Vis. (km) Weather Sky Cond. Air Dwpt Max. Min. Relative Humidity Wind Chill (°C) Heat Index (°C) altimeter (cm) sea level (mb) 1 hr 3 hr 6 hr
6 hour
Temperature (ºC) Pressure Precipitation (cm)